sensor_id;sensor_type;location;lat;lon;timestamp;pressure;altitude;pressure_sealevel;temperature;humidity
42951;BME280;28592;51.064;17.192;2022-08-19T00:01:55;99476.45;;;26.09;89.97
42951;BME280;28592;51.064;17.192;2022-08-19T00:04:43;99472.11;;;26.08;90.09
42951;BME280;28592;51.064;17.192;2022-08-19T00:07:32;99476.45;;;26.09;89.86
42951;BME280;28592;51.064;17.192;2022-08-19T00:10:19;99465.23;;;26.01;90.33
42951;BME280;28592;51.064;17.192;2022-08-19T00:13:05;99472.55;;;26.00;90.37
42951;BME280;28592;51.064;17.192;2022-08-19T00:15:51;99462.61;;;25.89;90.69
42951;BME280;28592;51.064;17.192;2022-08-19T00:18:36;99441.41;;;25.86;91.11
42951;BME280;28592;51.064;17.192;2022-08-19T00:21:22;99440.79;;;25.79;91.46
42951;BME280;28592;51.064;17.192;2022-08-19T00:24:09;99439.16;;;25.78;91.42
42951;BME280;28592;51.064;17.192;2022-08-19T00:26:55;99433.91;;;25.50;93.40
42951;BME280;28592;51.064;17.192;2022-08-19T00:29:41;99423.34;;;25.32;93.85
42951;BME280;28592;51.064;17.192;2022-08-19T00:32:26;99426.30;;;25.30;93.76
42951;BME280;28592;51.064;17.192;2022-08-19T00:35:12;99431.19;;;25.12;94.86
42951;BME280;28592;51.064;17.192;2022-08-19T00:37:57;99421.53;;;24.83;96.89
42951;BME280;28592;51.064;17.192;2022-08-19T00:40:44;99414.80;;;24.69;98.11
42951;BME280;28592;51.064;17.192;2022-08-19T00:43:31;99413.16;;;24.68;98.12
42951;BME280;28592;51.064;17.192;2022-08-19T00:46:16;99418.55;;;24.35;100.00
42951;BME280;28592;51.064;17.192;2022-08-19T00:52:29;99414.91;;;24.29;100.00
42951;BME280;28592;51.064;17.192;2022-08-19T00:55:06;99418.61;;;24.40;100.00
42951;BME280;28592;51.064;17.192;2022-08-19T00:58:11;99414.13;;;24.45;99.67
42951;BME280;28592;51.064;17.192;2022-08-19T01:00:54;99430.98;;;24.80;98.97
42951;BME280;28592;51.064;17.192;2022-08-19T01:03:39;99436.55;;;24.90;97.62
42951;BME280;28592;51.064;17.192;2022-08-19T01:06:25;99430.88;;;24.92;97.78
42951;BME280;28592;51.064;17.192;2022-08-19T01:09:10;99427.26;;;25.03;97.35
42951;BME280;28592;51.064;17.192;2022-08-19T01:11:56;99424.46;;;24.98;99.37
42951;BME280;28592;51.064;17.192;2022-08-19T01:14:42;99430.05;;;25.08;97.59
42951;BME280;28592;51.064;17.192;2022-08-19T01:17:27;99426.51;;;25.07;97.56
42951;BME280;28592;51.064;17.192;2022-08-19T01:20:16;99412.63;;;25.04;97.46
42951;BME280;28592;51.064;17.192;2022-08-19T01:23:02;99392.13;;;24.75;99.14
42951;BME280;28592;51.064;17.192;2022-08-19T01:25:50;99385.91;;;24.74;99.20
42951;BME280;28592;51.064;17.192;2022-08-19T01:28:36;99370.19;;;24.60;100.00
42951;BME280;28592;51.064;17.192;2022-08-19T01:31:25;99362.56;;;24.57;100.00
42951;BME280;28592;51.064;17.192;2022-08-19T01:34:10;99380.73;;;24.73;100.00
42951;BME280;28592;51.064;17.192;2022-08-19T01:36:55;99373.85;;;24.65;100.00
42951;BME280;28592;51.064;17.192;2022-08-19T01:39:42;99375.86;;;24.58;100.00
42951;BME280;28592;51.064;17.192;2022-08-19T01:42:28;99366.75;;;24.48;100.00
42951;BME280;28592;51.064;17.192;2022-08-19T01:45:17;99371.34;;;24.47;100.00
42951;BME280;28592;51.064;17.192;2022-08-19T01:48:04;99373.34;;;24.52;100.00
42951;BME280;28592;51.064;17.192;2022-08-19T01:50:50;99362.75;;;24.50;100.00
42951;BME280;28592;51.064;17.192;2022-08-19T01:53:36;99363.21;;;24.47;100.00
42951;BME280;28592;51.064;17.192;2022-08-19T01:56:22;99360.20;;;24.44;100.00
42951;BME280;28592;51.064;17.192;2022-08-19T01:59:14;99367.83;;;24.30;100.00
42951;BME280;28592;51.064;17.192;2022-08-19T02:02:01;99358.05;;;24.29;100.00
42951;BME280;28592;51.064;17.192;2022-08-19T02:04:46;99362.81;;;24.22;100.00
42951;BME280;28592;51.064;17.192;2022-08-19T02:07:32;99357.64;;;24.21;100.00
42951;BME280;28592;51.064;17.192;2022-08-19T02:10:20;99365.81;;;24.09;100.00
42951;BME280;28592;51.064;17.192;2022-08-19T02:13:06;99365.02;;;24.08;100.00
42951;BME280;28592;51.064;17.192;2022-08-19T02:15:51;99368.70;;;24.02;100.00
42951;BME280;28592;51.064;17.192;2022-08-19T02:18:36;99368.84;;;23.96;100.00
42951;BME280;28592;51.064;17.192;2022-08-19T02:21:23;99354.87;;;23.87;100.00
42951;BME280;28592;51.064;17.192;2022-08-19T02:24:09;99351.19;;;23.65;100.00
42951;BME280;28592;51.064;17.192;2022-08-19T02:26:54;99348.48;;;23.65;100.00
42951;BME280;28592;51.064;17.192;2022-08-19T02:29:43;99343.75;;;23.44;100.00
42951;BME280;28592;51.064;17.192;2022-08-19T02:32:28;99352.83;;;23.38;100.00
42951;BME280;28592;51.064;17.192;2022-08-19T02:35:15;99352.83;;;23.38;100.00
42951;BME280;28592;51.064;17.192;2022-08-19T02:38:00;99340.75;;;23.29;100.00
42951;BME280;28592;51.064;17.192;2022-08-19T02:41:02;99336.31;;;23.00;100.00
42951;BME280;28592;51.064;17.192;2022-08-19T02:43:48;99329.36;;;23.04;100.00
42951;BME280;28592;51.064;17.192;2022-08-19T02:46:34;99333.14;;;23.03;100.00
42951;BME280;28592;51.064;17.192;2022-08-19T02:49:21;99342.04;;;23.15;100.00
42951;BME280;28592;51.064;17.192;2022-08-19T02:52:06;99340.41;;;23.14;100.00
42951;BME280;28592;51.064;17.192;2022-08-19T02:54:51;99333.81;;;23.10;100.00
42951;BME280;28592;51.064;17.192;2022-08-19T02:57:37;99335.95;;;23.08;100.00
42951;BME280;28592;51.064;17.192;2022-08-19T03:00:23;99338.54;;;23.03;100.00
42951;BME280;28592;51.064;17.192;2022-08-19T03:03:09;99332.93;;;22.93;100.00
42951;BME280;28592;51.064;17.192;2022-08-19T03:08:52;99331.53;;;22.79;100.00
42951;BME280;28592;51.064;17.192;2022-08-19T03:11:38;99334.92;;;22.86;100.00
42951;BME280;28592;51.064;17.192;2022-08-19T03:14:24;99344.33;;;22.84;100.00
42951;BME280;28592;51.064;17.192;2022-08-19T03:17:09;99356.31;;;22.76;100.00
42951;BME280;28592;51.064;17.192;2022-08-19T03:19:54;99359.02;;;22.76;100.00
42951;BME280;28592;51.064;17.192;2022-08-19T03:22:40;99370.77;;;22.70;100.00
42951;BME280;28592;51.064;17.192;2022-08-19T03:25:25;99377.44;;;22.56;100.00
42951;BME280;28592;51.064;17.192;2022-08-19T03:28:12;99375.22;;;22.53;100.00
42951;BME280;28592;51.064;17.192;2022-08-19T03:31:07;99366.11;;;22.47;100.00
42951;BME280;28592;51.064;17.192;2022-08-19T03:33:54;99368.95;;;22.41;100.00
42951;BME280;28592;51.064;17.192;2022-08-19T03:36:39;99362.35;;;22.37;100.00
42951;BME280;28592;51.064;17.192;2022-08-19T03:39:25;99363.52;;;22.29;100.00
42951;BME280;28592;51.064;17.192;2022-08-19T03:42:11;99363.98;;;22.26;100.00
42951;BME280;28592;51.064;17.192;2022-08-19T03:44:57;99370.67;;;22.24;100.00
42951;BME280;28592;51.064;17.192;2022-08-19T03:47:43;99372.07;;;22.15;100.00
42951;BME280;28592;51.064;17.192;2022-08-19T03:50:28;99365.04;;;22.14;100.00
42951;BME280;28592;51.064;17.192;2022-08-19T03:53:14;99366.53;;;22.10;100.00
42951;BME280;28592;51.064;17.192;2022-08-19T03:56:00;99370.53;;;22.07;100.00
42951;BME280;28592;51.064;17.192;2022-08-19T03:58:46;99369.70;;;22.07;100.00
42951;BME280;28592;51.064;17.192;2022-08-19T04:01:32;99386.34;;;22.04;100.00
42951;BME280;28592;51.064;17.192;2022-08-19T04:04:18;99391.37;;;22.00;100.00
42951;BME280;28592;51.064;17.192;2022-08-19T04:07:06;99398.52;;;21.95;100.00
42951;BME280;28592;51.064;17.192;2022-08-19T04:09:53;99400.30;;;22.01;100.00
42951;BME280;28592;51.064;17.192;2022-08-19T04:12:39;99391.37;;;22.00;100.00
42951;BME280;28592;51.064;17.192;2022-08-19T04:15:25;99393.61;;;22.03;100.00
42951;BME280;28592;51.064;17.192;2022-08-19T04:18:10;99399.52;;;22.12;100.00
42951;BME280;28592;51.064;17.192;2022-08-19T04:20:55;99393.66;;;22.15;100.00
42951;BME280;28592;51.064;17.192;2022-08-19T04:23:41;99398.03;;;22.27;100.00
42951;BME280;28592;51.064;17.192;2022-08-19T04:26:29;99401.81;;;22.38;100.00
42951;BME280;28592;51.064;17.192;2022-08-19T04:29:23;99401.11;;;22.42;100.00
42951;BME280;28592;51.064;17.192;2022-08-19T04:32:11;99397.98;;;22.57;100.00
42951;BME280;28592;51.064;17.192;2022-08-19T04:34:59;99404.11;;;22.64;100.00
42951;BME280;28592;51.064;17.192;2022-08-19T04:37:45;99398.24;;;22.67;100.00
42951;BME280;28592;51.064;17.192;2022-08-19T04:40:30;99395.52;;;22.90;100.00
42951;BME280;28592;51.064;17.192;2022-08-19T04:43:27;99400.22;;;23.06;100.00
42951;BME280;28592;51.064;17.192;2022-08-19T04:46:13;99390.92;;;23.14;100.00
42951;BME280;28592;51.064;17.192;2022-08-19T04:48:59;99388.22;;;23.14;100.00
42951;BME280;28592;51.064;17.192;2022-08-19T04:51:49;99400.53;;;23.44;100.00
42951;BME280;28592;51.064;17.192;2022-08-19T04:54:38;99395.12;;;23.44;100.00
42951;BME280;28592;51.064;17.192;2022-08-19T04:57:24;99392.59;;;23.66;100.00
42951;BME280;28592;51.064;17.192;2022-08-19T05:00:11;99394.44;;;23.77;100.00
42951;BME280;28592;51.064;17.192;2022-08-19T05:02:56;99391.09;;;23.86;100.00
42951;BME280;28592;51.064;17.192;2022-08-19T05:05:43;99375.09;;;23.96;100.00
42951;BME280;28592;51.064;17.192;2022-08-19T05:08:29;99372.38;;;23.96;100.00
42951;BME280;28592;51.064;17.192;2022-08-19T05:11:21;99385.59;;;24.09;100.00
42951;BME280;28592;51.064;17.192;2022-08-19T05:14:10;99391.27;;;24.25;100.00
42951;BME280;28592;51.064;17.192;2022-08-19T05:16:57;99387.92;;;24.34;100.00
42951;BME280;28592;51.064;17.192;2022-08-19T05:19:42;99383.41;;;24.40;100.00
42951;BME280;28592;51.064;17.192;2022-08-19T05:22:41;99384.48;;;24.39;100.00
42951;BME280;28592;51.064;17.192;2022-08-19T05:25:26;99378.17;;;24.50;100.00
42951;BME280;28592;51.064;17.192;2022-08-19T05:28:11;99381.92;;;24.49;100.00
42951;BME280;28592;51.064;17.192;2022-08-19T05:30:56;99384.32;;;24.62;100.00
42951;BME280;28592;51.064;17.192;2022-08-19T05:33:42;99379.15;;;24.60;100.00
42951;BME280;28592;51.064;17.192;2022-08-19T05:36:34;99391.97;;;24.81;100.00
42951;BME280;28592;51.064;17.192;2022-08-19T05:39:20;99384.92;;;24.80;100.00
42951;BME280;28592;51.064;17.192;2022-08-19T05:42:09;99400.23;;;25.08;100.00
42951;BME280;28592;51.064;17.192;2022-08-19T05:44:54;99415.91;;;25.06;100.00
42951;BME280;28592;51.064;17.192;2022-08-19T05:47:41;99409.66;;;25.05;100.00
42951;BME280;28592;51.064;17.192;2022-08-19T05:50:29;99397.05;;;24.94;100.00
42951;BME280;28592;51.064;17.192;2022-08-19T05:53:16;99395.06;;;25.06;100.00
42951;BME280;28592;51.064;17.192;2022-08-19T05:56:08;99396.31;;;25.20;100.00
42951;BME280;28592;51.064;17.192;2022-08-19T05:58:58;99393.30;;;25.17;100.00
42951;BME280;28592;51.064;17.192;2022-08-19T06:01:45;99386.88;;;25.23;100.00
42951;BME280;28592;51.064;17.192;2022-08-19T06:04:31;99395.42;;;25.53;100.00
42951;BME280;28592;51.064;17.192;2022-08-19T06:07:16;99392.97;;;25.51;100.00
42951;BME280;28592;51.064;17.192;2022-08-19T06:10:07;99409.17;;;25.68;100.00
42951;BME280;28592;51.064;17.192;2022-08-19T06:12:53;99414.23;;;25.81;100.00
42951;BME280;28592;51.064;17.192;2022-08-19T06:15:38;99440.79;;;25.79;100.00
42951;BME280;28592;51.064;17.192;2022-08-19T06:18:23;99436.99;;;25.80;100.00
42951;BME280;28592;51.064;17.192;2022-08-19T06:21:09;99429.68;;;25.80;100.00
42951;BME280;28592;51.064;17.192;2022-08-19T06:23:57;99444.77;;;25.93;100.00
42951;BME280;28592;51.064;17.192;2022-08-19T06:26:44;99449.23;;;26.04;100.00
42951;BME280;28592;51.064;17.192;2022-08-19T06:29:31;99459.97;;;26.16;100.00
42951;BME280;28592;51.064;17.192;2022-08-19T06:32:17;99459.30;;;26.30;100.00
42951;BME280;28592;51.064;17.192;2022-08-19T06:35:04;99464.98;;;26.29;100.00
42951;BME280;28592;51.064;17.192;2022-08-19T06:37:50;99475.17;;;26.17;100.00
42951;BME280;28592;51.064;17.192;2022-08-19T06:40:40;99477.09;;;26.43;100.00
42951;BME280;28592;51.064;17.192;2022-08-19T06:43:25;99480.06;;;26.41;100.00
42951;BME280;28592;51.064;17.192;2022-08-19T06:46:15;99484.77;;;26.77;100.00
42951;BME280;28592;51.064;17.192;2022-08-19T06:49:02;99476.61;;;26.77;100.00
42951;BME280;28592;51.064;17.192;2022-08-19T06:51:49;99492.50;;;26.90;99.93
42951;BME280;28592;51.064;17.192;2022-08-19T06:54:34;99492.03;;;26.98;99.21
42951;BME280;28592;51.064;17.192;2022-08-19T06:57:21;99496.97;;;27.06;100.00
42951;BME280;28592;51.064;17.192;2022-08-19T07:00:07;99499.67;;;27.01;99.45
42951;BME280;28592;51.064;17.192;2022-08-19T07:02:57;99506.17;;;26.69;96.19
42951;BME280;28592;51.064;17.192;2022-08-19T07:05:44;99517.22;;;26.62;99.07
42951;BME280;28592;51.064;17.192;2022-08-19T07:08:30;99505.06;;;26.96;96.11
42951;BME280;28592;51.064;17.192;2022-08-19T07:11:17;99506.97;;;27.27;95.04
42951;BME280;28592;51.064;17.192;2022-08-19T07:14:05;99510.48;;;27.28;95.05
42951;BME280;28592;51.064;17.192;2022-08-19T07:16:52;99503.28;;;27.12;92.78
42951;BME280;28592;51.064;17.192;2022-08-19T07:19:40;99500.89;;;27.20;94.65
42951;BME280;28592;51.064;17.192;2022-08-19T07:22:27;99512.59;;;27.21;95.63
42951;BME280;28592;51.064;17.192;2022-08-19T07:25:12;99512.70;;;26.99;94.62
42951;BME280;28592;51.064;17.192;2022-08-19T07:27:57;99534.33;;;26.84;93.90
42951;BME280;28592;51.064;17.192;2022-08-19T07:30:43;99537.09;;;26.89;94.69
42951;BME280;28592;51.064;17.192;2022-08-19T07:33:29;99530.83;;;26.89;94.45
42951;BME280;28592;51.064;17.192;2022-08-19T07:36:24;99538.31;;;27.35;94.45
42951;BME280;28592;51.064;17.192;2022-08-19T07:39:19;99546.84;;;27.49;93.80
42951;BME280;28592;51.064;17.192;2022-08-19T07:42:08;99540.99;;;27.72;91.14
42951;BME280;28592;51.064;17.192;2022-08-19T07:44:58;99541.10;;;27.92;87.57
42951;BME280;28592;51.064;17.192;2022-08-19T07:47:44;99532.40;;;27.90;90.36
42951;BME280;28592;51.064;17.192;2022-08-19T07:50:30;99540.84;;;27.88;88.34
42951;BME280;28592;51.064;17.192;2022-08-19T07:53:15;99532.73;;;28.03;86.62
42951;BME280;28592;51.064;17.192;2022-08-19T07:56:01;99529.17;;;28.03;86.54
42951;BME280;28592;51.064;17.192;2022-08-19T07:58:50;99533.05;;;28.17;85.14
42951;BME280;28592;51.064;17.192;2022-08-19T08:01:36;99522.16;;;28.17;84.94
42951;BME280;28592;51.064;17.192;2022-08-19T08:04:27;99528.96;;;28.19;83.41
42951;BME280;28592;51.064;17.192;2022-08-19T08:07:25;99547.36;;;28.59;81.67
42951;BME280;28592;51.064;17.192;2022-08-19T08:10:23;99551.22;;;28.73;80.71
42951;BME280;28592;51.064;17.192;2022-08-19T08:13:11;99543.86;;;28.73;80.48
42951;BME280;28592;51.064;17.192;2022-08-19T08:15:57;99555.91;;;29.13;79.63
42951;BME280;28592;51.064;17.192;2022-08-19T08:18:42;99552.36;;;29.12;79.43
42951;BME280;28592;51.064;17.192;2022-08-19T08:21:29;99554.84;;;29.09;80.79
42951;BME280;28592;51.064;17.192;2022-08-19T08:24:15;99554.56;;;29.10;78.65
42951;BME280;28592;51.064;17.192;2022-08-19T08:27:01;99572.28;;;29.28;78.50
42951;BME280;28592;51.064;17.192;2022-08-19T08:29:48;99565.73;;;29.44;79.61
42951;BME280;28592;51.064;17.192;2022-08-19T08:32:33;99564.08;;;29.63;76.91
42951;BME280;28592;51.064;17.192;2022-08-19T08:35:21;99568.47;;;29.64;76.90
42951;BME280;28592;51.064;17.192;2022-08-19T08:38:07;99564.91;;;29.63;77.05
42951;BME280;28592;51.064;17.192;2022-08-19T08:40:58;99559.91;;;29.95;74.69
42951;BME280;28592;51.064;17.192;2022-08-19T08:43:52;99561.42;;;30.31;74.45
42951;BME280;28592;51.064;17.192;2022-08-19T08:52:35;99551.35;;;30.76;72.67
42951;BME280;28592;51.064;17.192;2022-08-19T08:55:25;99551.70;;;31.03;70.04
42951;BME280;28592;51.064;17.192;2022-08-19T09:01:12;99554.73;;;31.35;70.72
42951;BME280;28592;51.064;17.192;2022-08-19T09:04:03;99541.16;;;31.20;73.40
42951;BME280;28592;51.064;17.192;2022-08-19T09:09:52;99526.99;;;31.13;70.81
42951;BME280;28592;51.064;17.192;2022-08-19T09:12:53;99513.80;;;31.48;69.94
42951;BME280;28592;51.064;17.192;2022-08-19T09:15:43;99508.10;;;31.45;68.75
42951;BME280;28592;51.064;17.192;2022-08-19T09:21:27;99540.59;;;31.80;70.29
42951;BME280;28592;51.064;17.192;2022-08-19T09:24:12;99541.68;;;31.79;70.20
42951;BME280;28592;51.064;17.192;2022-08-19T09:26:57;99544.18;;;31.18;71.17
42951;BME280;28592;51.064;17.192;2022-08-19T09:29:43;99546.09;;;31.18;70.83
42951;BME280;28592;51.064;17.192;2022-08-19T09:32:28;99538.14;;;31.78;69.44
42951;BME280;28592;51.064;17.192;2022-08-19T09:35:15;99537.52;;;31.34;67.34
42951;BME280;28592;51.064;17.192;2022-08-19T09:38:00;99543.13;;;31.48;71.20
42951;BME280;28592;51.064;17.192;2022-08-19T09:40:48;99547.86;;;31.66;68.15
42951;BME280;28592;51.064;17.192;2022-08-19T09:43:34;99539.65;;;31.66;67.88
42951;BME280;28592;51.064;17.192;2022-08-19T09:46:23;99530.12;;;31.87;67.31
42951;BME280;28592;51.064;17.192;2022-08-19T09:49:09;99527.58;;;32.14;67.70
42951;BME280;28592;51.064;17.192;2022-08-19T09:51:54;99533.01;;;32.19;64.91
42951;BME280;28592;51.064;17.192;2022-08-19T09:54:41;99527.38;;;32.29;65.92
42951;BME280;28592;51.064;17.192;2022-08-19T09:57:26;99533.92;;;32.33;65.47
42951;BME280;28592;51.064;17.192;2022-08-19T10:00:12;99537.67;;;32.42;65.13
42951;BME280;28592;51.064;17.192;2022-08-19T10:02:58;99533.74;;;32.48;64.74
42951;BME280;28592;51.064;17.192;2022-08-19T10:05:43;99528.26;;;32.48;63.45
42951;BME280;28592;51.064;17.192;2022-08-19T10:08:36;99531.00;;;32.48;64.07
42951;BME280;28592;51.064;17.192;2022-08-19T10:11:24;99531.54;;;32.26;67.40
42951;BME280;28592;51.064;17.192;2022-08-19T10:14:11;99531.54;;;32.26;67.12
42951;BME280;28592;51.064;17.192;2022-08-19T10:16:56;99532.27;;;32.32;65.65
42951;BME280;28592;51.064;17.192;2022-08-19T10:19:41;99533.95;;;32.70;65.33
42951;BME280;28592;51.064;17.192;2022-08-19T10:22:27;99533.90;;;32.94;63.49
42951;BME280;28592;51.064;17.192;2022-08-19T10:25:12;99530.44;;;32.88;65.11
42951;BME280;28592;51.064;17.192;2022-08-19T10:28:01;99528.78;;;32.87;65.66
42951;BME280;28592;51.064;17.192;2022-08-19T10:30:46;99523.66;;;32.81;65.48
42951;BME280;28592;51.064;17.192;2022-08-19T10:33:33;99524.03;;;32.74;66.57
42951;BME280;28592;51.064;17.192;2022-08-19T10:36:21;99518.77;;;32.41;66.73
42951;BME280;28592;51.064;17.192;2022-08-19T10:39:08;99513.67;;;32.10;67.22
42951;BME280;28592;51.064;17.192;2022-08-19T10:41:54;99512.70;;;32.20;67.70
42951;BME280;28592;51.064;17.192;2022-08-19T10:44:41;99509.95;;;32.20;68.29
42951;BME280;28592;51.064;17.192;2022-08-19T10:47:29;99509.95;;;32.44;69.24
42951;BME280;28592;51.064;17.192;2022-08-19T10:50:14;99509.25;;;32.70;65.59
42951;BME280;28592;51.064;17.192;2022-08-19T10:53:11;99519.87;;;32.58;65.91
42951;BME280;28592;51.064;17.192;2022-08-19T10:55:56;99523.89;;;32.47;64.24
42951;BME280;28592;51.064;17.192;2022-08-19T10:58:53;99521.15;;;32.47;63.82
42951;BME280;28592;51.064;17.192;2022-08-19T11:01:43;99519.14;;;32.71;65.28
42951;BME280;28592;51.064;17.192;2022-08-19T11:04:28;99517.81;;;32.50;65.02
42951;BME280;28592;51.064;17.192;2022-08-19T11:07:14;99522.77;;;32.48;63.64
42951;BME280;28592;51.064;17.192;2022-08-19T11:09:59;99523.89;;;32.47;63.76
42951;BME280;28592;51.064;17.192;2022-08-19T11:12:45;99521.36;;;32.69;65.50
42951;BME280;28592;51.064;17.192;2022-08-19T11:15:31;99520.83;;;32.67;65.78
42951;BME280;28592;51.064;17.192;2022-08-19T11:18:17;99511.40;;;32.73;63.28
42951;BME280;28592;51.064;17.192;2022-08-19T11:24:08;99523.73;;;32.76;64.37
42951;BME280;28592;51.064;17.192;2022-08-19T11:27:02;99522.70;;;33.54;62.44
42951;BME280;28592;51.064;17.192;2022-08-19T11:29:46;99519.95;;;33.54;62.36
42951;BME280;28592;51.064;17.192;2022-08-19T11:32:32;99516.11;;;33.23;63.67
42951;BME280;28592;51.064;17.192;2022-08-19T11:35:19;99518.25;;;32.94;65.84
42951;BME280;28592;51.064;17.192;2022-08-19T11:38:05;99511.94;;;32.94;65.69
42951;BME280;28592;51.064;17.192;2022-08-19T11:40:58;99519.09;;;33.08;63.46
42951;BME280;28592;51.064;17.192;2022-08-19T11:43:44;99532.92;;;32.66;63.04
42951;BME280;28592;51.064;17.192;2022-08-19T11:46:30;99527.44;;;32.66;63.20
42951;BME280;28592;51.064;17.192;2022-08-19T11:49:17;99536.11;;;33.42;59.35
42951;BME280;28592;51.064;17.192;2022-08-19T11:52:06;99536.11;;;33.42;59.67
42951;BME280;28592;51.064;17.192;2022-08-19T11:54:55;99535.67;;;33.35;58.83
42951;BME280;28592;51.064;17.192;2022-08-19T11:57:41;99539.14;;;34.00;56.95
42951;BME280;28592;51.064;17.192;2022-08-19T12:00:28;99536.48;;;34.22;57.84
42951;BME280;28592;51.064;17.192;2022-08-19T12:03:13;99531.78;;;34.23;59.26
42951;BME280;28592;51.064;17.192;2022-08-19T12:06:08;99526.28;;;34.23;59.22
42951;BME280;28592;51.064;17.192;2022-08-19T12:09:00;99534.33;;;34.33;56.95
42951;BME280;28592;51.064;17.192;2022-08-19T12:11:46;99533.47;;;34.59;56.26
42951;BME280;28592;51.064;17.192;2022-08-19T12:14:32;99511.49;;;34.46;57.92
42951;BME280;28592;51.064;17.192;2022-08-19T12:17:18;99516.20;;;34.45;57.26
42951;BME280;28592;51.064;17.192;2022-08-19T12:20:04;99517.78;;;34.60;55.13
42951;BME280;28592;51.064;17.192;2022-08-19T12:22:53;99520.47;;;34.51;57.68
42951;BME280;28592;51.064;17.192;2022-08-19T12:25:45;99519.48;;;34.69;56.90
42951;BME280;28592;51.064;17.192;2022-08-19T12:28:37;99519.39;;;34.61;57.81
42951;BME280;28592;51.064;17.192;2022-08-19T12:31:23;99519.44;;;34.47;58.08
42951;BME280;28592;51.064;17.192;2022-08-19T12:34:08;99524.05;;;34.38;59.29
42951;BME280;28592;51.064;17.192;2022-08-19T12:36:54;99515.80;;;34.38;59.17
42951;BME280;28592;51.064;17.192;2022-08-19T12:39:41;99519.39;;;34.61;60.42
42951;BME280;28592;51.064;17.192;2022-08-19T12:42:27;99520.68;;;34.77;58.09
42951;BME280;28592;51.064;17.192;2022-08-19T12:45:14;99519.91;;;34.98;55.92
42951;BME280;28592;51.064;17.192;2022-08-19T12:48:00;99514.09;;;35.00;56.10
42951;BME280;28592;51.064;17.192;2022-08-19T12:50:46;99523.14;;;35.00;56.52
42951;BME280;28592;51.064;17.192;2022-08-19T12:53:31;99519.56;;;35.22;59.04
42951;BME280;28592;51.064;17.192;2022-08-19T12:56:16;99525.98;;;35.09;56.44
42951;BME280;28592;51.064;17.192;2022-08-19T12:59:04;99529.52;;;35.09;56.41
42951;BME280;28592;51.064;17.192;2022-08-19T13:01:50;99531.65;;;35.12;56.19
42951;BME280;28592;51.064;17.192;2022-08-19T13:04:36;99526.51;;;35.72;56.29
42951;BME280;28592;51.064;17.192;2022-08-19T13:07:25;99513.86;;;35.71;56.26
42951;BME280;28592;51.064;17.192;2022-08-19T13:10:13;99520.25;;;35.50;54.49
42951;BME280;28592;51.064;17.192;2022-08-19T13:13:08;99522.91;;;35.10;55.59
42951;BME280;28592;51.064;17.192;2022-08-19T13:16:00;99515.66;;;34.92;54.44
42951;BME280;28592;51.064;17.192;2022-08-19T13:18:48;99510.63;;;35.16;54.45
42951;BME280;28592;51.064;17.192;2022-08-19T13:21:36;99514.25;;;35.25;54.46
42951;BME280;28592;51.064;17.192;2022-08-19T13:24:21;99501.59;;;35.47;54.50
42951;BME280;28592;51.064;17.192;2022-08-19T13:27:09;99512.75;;;35.19;53.54
42951;BME280;28592;51.064;17.192;2022-08-19T13:29:55;99512.58;;;35.38;56.91
42951;BME280;28592;51.064;17.192;2022-08-19T13:32:51;99508.23;;;35.23;56.15
42951;BME280;28592;51.064;17.192;2022-08-19T13:35:53;99508.55;;;35.22;55.60
42951;BME280;28592;51.064;17.192;2022-08-19T13:38:41;99499.72;;;35.33;56.56
42951;BME280;28592;51.064;17.192;2022-08-19T13:41:27;99503.39;;;35.51;51.65
42951;BME280;28592;51.064;17.192;2022-08-19T13:44:15;99502.41;;;35.25;52.37
42951;BME280;28592;51.064;17.192;2022-08-19T13:47:04;99502.14;;;34.47;53.58
42951;BME280;28592;51.064;17.192;2022-08-19T13:50:02;99496.63;;;34.47;53.93
42951;BME280;28592;51.064;17.192;2022-08-19T13:52:48;99503.79;;;34.21;55.14
42951;BME280;28592;51.064;17.192;2022-08-19T13:55:33;99509.30;;;34.21;55.48
42951;BME280;28592;51.064;17.192;2022-08-19T13:58:20;99511.01;;;34.44;54.33
42951;BME280;28592;51.064;17.192;2022-08-19T14:01:05;99511.01;;;34.44;54.97
42951;BME280;28592;51.064;17.192;2022-08-19T14:03:52;99499.28;;;34.38;57.35
42951;BME280;28592;51.064;17.192;2022-08-19T14:06:37;99495.50;;;34.34;57.33
42951;BME280;28592;51.064;17.192;2022-08-19T14:09:22;99506.64;;;34.16;56.68
42951;BME280;28592;51.064;17.192;2022-08-19T14:12:07;99512.14;;;34.16;56.51
42951;BME280;28592;51.064;17.192;2022-08-19T14:14:53;99511.73;;;34.22;56.18
42951;BME280;28592;51.064;17.192;2022-08-19T14:17:41;99503.39;;;34.00;57.83
42951;BME280;28592;51.064;17.192;2022-08-19T14:20:27;99505.34;;;34.00;57.31
42951;BME280;28592;51.064;17.192;2022-08-19T14:23:12;99503.17;;;34.24;57.87
42951;BME280;28592;51.064;17.192;2022-08-19T14:26:05;99505.51;;;34.44;58.88
42951;BME280;28592;51.064;17.192;2022-08-19T14:28:51;99499.24;;;34.52;56.19
42951;BME280;28592;51.064;17.192;2022-08-19T14:31:37;99490.73;;;34.26;58.20
42951;BME280;28592;51.064;17.192;2022-08-19T14:34:28;99496.13;;;34.31;60.40
42951;BME280;28592;51.064;17.192;2022-08-19T14:37:17;99498.08;;;34.17;59.80
42951;BME280;28592;51.064;17.192;2022-08-19T14:40:03;99492.38;;;34.14;59.26
42951;BME280;28592;51.064;17.192;2022-08-19T14:42:56;99496.47;;;34.16;59.04
42951;BME280;28592;51.064;17.192;2022-08-19T14:45:45;99498.61;;;33.92;58.09
42951;BME280;28592;51.064;17.192;2022-08-19T14:48:30;99492.59;;;33.76;59.45
42951;BME280;28592;51.064;17.192;2022-08-19T14:51:16;99482.39;;;33.77;59.18
42951;BME280;28592;51.064;17.192;2022-08-19T14:54:01;99490.66;;;33.91;58.67